Time;durP1;ratioP1;P1;durP2;ratioP2;P2;SDS_P1;SDS_P2;PMS_P1;PMS_P2;Temp;Humidity;BMP_temperature;BMP_pressure;BME280_temperature;BME280_humidity;BME280_pressure;Samples;Min_cycle;Max_cycle;Signal;HPM_P1;HPM_P2
2023/03/06 00:01:48;;;;;;;;;;;;;;;-4.31;84.10;99442.61;108891;1258;87474;-60
2023/03/06 00:04:22;;;;;;;40.80;22.30;;;;;;;-4.32;84.17;99442.38;108856;1258;95286;-60
2023/03/06 00:06:57;;;;;;;40.00;21.40;;;;;;;-4.32;84.69;99442.02;108839;1258;79225;-62
2023/03/06 00:09:31;;;;;;;41.10;22.20;;;;;;;-4.34;84.28;99440.59;108857;1258;80877;-62
2023/03/06 00:12:06;;;;;;;41.60;22.70;;;;;;;-4.38;84.19;99441.29;108866;1258;98293;-60
2023/03/06 00:14:40;;;;;;;39.00;22.00;;;;;;;-4.43;84.64;99440.18;108870;1258;88951;-60
2023/03/06 00:17:14;;;;;;;40.50;23.70;;;;;;;-4.44;84.57;99442.08;108879;1258;95144;-62
2023/03/06 00:19:48;;;;;;;38.50;21.80;;;;;;;-4.43;84.86;99440.79;108845;1258;81318;-62
2023/03/06 00:22:22;;;;;;;44.10;21.90;;;;;;;-4.45;84.40;99440.96;108855;1258;82561;-58
2023/03/06 00:24:58;;;;;;;42.20;22.00;;;;;;;-4.47;84.77;99442.16;108844;1258;99224;-58
2023/03/06 00:27:34;;;;;;;43.30;23.60;;;;;;;-4.48;84.69;99446.98;108897;1258;88837;-56
2023/03/06 00:30:12;;;;;;;38.60;22.90;;;;;;;-4.45;84.87;99445.64;108849;1258;95209;-56
2023/03/06 00:32:47;;;;;;;42.70;23.00;;;;;;;-4.48;84.79;99447.64;108846;1258;80384;-60
2023/03/06 00:35:21;;;;;;;40.20;22.10;;;;;;;-4.49;85.01;99444.89;108847;1258;82675;-60
2023/03/06 00:37:58;;;;;;;43.90;23.50;;;;;;;-4.50;84.90;99446.04;108881;1258;100333;-60
2023/03/06 00:40:32;;;;;;;44.90;24.20;;;;;;;-4.44;85.03;99444.04;108825;1258;88703;-60
2023/03/06 00:43:06;;;;;;;42.00;24.30;;;;;;;-4.45;85.01;99447.07;108832;1258;93829;-60
2023/03/06 00:45:41;;;;;;;45.40;23.70;;;;;;;-4.50;84.85;99446.74;108820;1259;82516;-60
2023/03/06 00:48:15;;;;;;;46.90;24.40;;;;;;;-4.53;85.00;99445.45;108829;1258;83970;-58
2023/03/06 00:50:50;;;;;;;50.60;25.00;;;;;;;-4.56;85.01;99442.48;108850;1258;99121;-58
2023/03/06 00:53:25;;;;;;;42.60;23.80;;;;;;;-4.57;85.08;99443.29;108926;1258;89249;-62
2023/03/06 00:55:59;;;;;;;45.00;23.60;;;;;;;-4.62;84.69;99441.58;108836;1258;95597;-62
2023/03/06 00:58:36;;;;;;;44.10;24.40;;;;;;;-4.64;85.20;99444.32;108819;1258;80961;-62
2023/03/06 01:01:11;;;;;;;51.00;25.80;;;;;;;-4.62;84.92;99442.48;108839;1258;82616;-62
2023/03/06 01:03:45;;;;;;;45.70;24.90;;;;;;;-4.62;85.16;99440.48;108841;1258;99664;-56
2023/03/06 01:06:20;;;;;;;44.60;23.50;;;;;;;-4.63;85.10;99440.20;108850;1259;87051;-56
2023/03/06 01:08:55;;;;;;;44.30;22.60;;;;;;;-4.64;85.12;99442.02;108856;1258;95154;-56
2023/03/06 01:11:29;;;;;;;43.80;23.80;;;;;;;-4.64;84.94;99433.11;108827;1258;80983;-56
2023/03/06 01:14:03;;;;;;;44.40;23.50;;;;;;;-4.64;85.23;99435.55;108899;1258;82596;-56
2023/03/06 01:16:37;;;;;;;31.60;18.70;;;;;;;-4.64;85.21;99433.45;108877;1258;99478;-56
2023/03/06 01:19:11;;;;;;;40.00;23.10;;;;;;;-4.66;85.05;99432.21;108834;1260;85891;-60
2023/03/06 01:21:46;;;;;;;43.00;22.50;;;;;;;-4.69;85.02;99431.36;108834;1258;94060;-56
2023/03/06 01:24:20;;;;;;;44.00;23.90;;;;;;;-4.70;85.12;99434.62;108829;1258;80712;-56
2023/03/06 01:26:54;;;;;;;47.00;24.70;;;;;;;-4.72;85.08;99438.26;108837;1258;83356;-58
2023/03/06 01:29:28;;;;;;;42.00;23.90;;;;;;;-4.76;85.16;99436.33;108859;1258;98332;-58
2023/03/06 01:32:03;;;;;;;46.00;23.80;;;;;;;-4.80;84.97;99435.91;108861;1258;89070;-58
2023/03/06 01:34:38;;;;;;;40.80;22.20;;;;;;;-4.82;85.14;99436.60;108818;1258;94924;-58
2023/03/06 01:37:12;;;;;;;44.10;23.40;;;;;;;-4.84;85.27;99431.50;108820;1262;80980;-56
2023/03/06 01:39:46;;;;;;;43.60;23.50;;;;;;;-4.88;85.18;99433.66;108852;1258;82680;-56
2023/03/06 01:42:20;;;;;;;44.50;22.90;;;;;;;-4.89;85.42;99429.08;108835;1258;98785;-62
2023/03/06 01:45:28;;;;;;;43.00;22.00;;;;;;;-4.92;85.00;99426.98;108869;1258;89024;-62
2023/03/06 01:48:02;;;;;;;42.90;22.80;;;;;;;-4.96;85.21;99427.45;108878;1259;92948;-60
2023/03/06 01:50:37;;;;;;;39.30;22.50;;;;;;;-4.96;85.10;99425.39;108827;1258;80580;-60
2023/03/06 01:53:11;;;;;;;44.10;21.80;;;;;;;-4.99;85.31;99423.50;108838;1259;81706;-60
2023/03/06 01:55:45;;;;;;;44.30;23.60;;;;;;;-5.02;85.14;99423.39;108849;1258;97851;-60
2023/03/06 01:58:20;;;;;;;41.30;22.30;;;;;;;-5.04;85.15;99420.94;108829;1258;87029;-62
2023/03/06 02:00:55;;;;;;;45.30;22.60;;;;;;;-5.06;85.22;99419.80;108813;1258;94293;-62
2023/03/06 02:03:30;;;;;;;46.10;23.60;;;;;;;-5.04;85.36;99422.48;108819;1258;81152;-56
2023/03/06 02:06:04;;;;;;;44.70;23.90;;;;;;;-5.05;85.44;99419.70;108851;1258;80105;-56
2023/03/06 02:08:39;;;;;;;41.90;22.00;;;;;;;-5.05;85.29;99420.42;108853;1258;98048;-56
2023/03/06 02:11:18;;;;;;;42.00;22.70;;;;;;;-5.05;85.41;99419.20;108848;1258;88017;-56
2023/03/06 02:13:54;;;;;;;43.50;21.40;;;;;;;-5.05;85.67;99421.67;108821;1258;94166;-56
2023/03/06 02:16:32;;;;;;;40.70;22.90;;;;;;;-5.04;85.83;99420.92;108847;1258;80191;-56
2023/03/06 02:19:15;;;;;;;43.80;22.10;;;;;;;-5.03;85.62;99420.81;108830;1259;80578;-58
2023/03/06 02:21:49;;;;;;;41.30;21.40;;;;;;;-5.03;85.82;99418.86;108858;1258;100163;-58
2023/03/06 02:24:34;;;;;;;;;;;;;;;-4.99;85.77;99415.44;108874;1258;87747;-58
2023/03/06 02:27:13;;;;;;;31.80;17.30;;;;;;;-5.01;85.57;99420.11;108822;1259;93754;-62
2023/03/06 02:29:47;;;;;;;39.80;21.20;;;;;;;-5.03;85.59;99416.26;108823;1259;77869;-62
2023/03/06 02:32:19;;;;;;;;;;;;;;;-5.03;85.81;99418.54;108887;1258;81925;-62
2023/03/06 02:35:01;;;;;;;37.10;20.80;;;;;;;-5.04;85.71;99417.22;108847;1259;97857;-62
2023/03/06 02:37:35;;;;;;;45.50;24.10;;;;;;;-5.08;85.66;99417.65;108850;1258;88596;-56
2023/03/06 02:40:16;;;;;;;41.00;22.60;;;;;;;-5.10;85.65;99413.59;108836;1258;93950;-56
2023/03/06 02:42:55;;;;;;;44.30;23.40;;;;;;;-5.14;85.71;99419.90;108840;1260;80866;-58
2023/03/06 02:45:35;;;;;;;47.70;22.30;;;;;;;-5.18;85.70;99414.58;108855;1259;82972;-58
2023/03/06 02:48:10;;;;;;;41.50;24.10;;;;;;;-5.21;85.77;99413.75;108860;1258;99569;-58
2023/03/06 02:50:46;;;;;;;40.90;21.40;;;;;;;-5.20;86.00;99411.39;108827;1258;88448;-58
2023/03/06 02:53:22;;;;;;;39.40;20.90;;;;;;;-5.19;85.94;99414.36;108848;1259;95052;-58
2023/03/06 02:55:57;;;;;;;39.40;21.90;;;;;;;-5.20;86.02;99413.52;108796;1259;79797;-58
2023/03/06 02:58:31;;;;;;;40.90;21.50;;;;;;;-5.18;85.97;99414.21;108885;1258;82534;-58
2023/03/06 03:01:05;;;;;;;38.20;20.20;;;;;;;-5.19;85.73;99411.86;108840;1259;98651;-58
2023/03/06 03:03:37;;;;;;;;;;;;;;;-5.21;85.91;99411.00;108856;1259;85962;-56
2023/03/06 03:06:12;;;;;;;39.10;20.20;;;;;;;-5.23;86.05;99411.44;108828;1258;95486;-56
2023/03/06 03:08:44;;;;;;;;;;;;;;;-5.22;86.16;99412.95;108873;1259;80549;-56
2023/03/06 03:11:18;;;;;;;40.50;21.80;;;;;;;-5.23;86.15;99410.40;108850;1258;82258;-56
2023/03/06 03:13:52;;;;;;;41.10;22.30;;;;;;;-5.20;85.98;99411.95;108853;1260;99916;-56
2023/03/06 03:16:26;;;;;;;42.50;20.50;;;;;;;-5.18;86.10;99411.13;108830;1263;87392;-56
2023/03/06 03:19:00;;;;;;;38.20;20.40;;;;;;;-5.23;86.26;99411.98;108837;1263;95239;-62
2023/03/06 03:21:35;;;;;;;42.30;21.70;;;;;;;-5.28;86.09;99411.19;108812;1260;80420;-62
2023/03/06 03:24:10;;;;;;;37.20;20.80;;;;;;;-5.30;86.27;99411.77;108835;1261;83158;-58
2023/03/06 03:26:44;;;;;;;37.90;20.80;;;;;;;-5.34;85.93;99408.62;108849;1259;99518;-61
2023/03/06 03:29:19;;;;;;;38.40;20.60;;;;;;;-5.39;86.26;99410.86;108851;1259;89828;-60
2023/03/06 03:31:51;;;;;;;;;;;;;;;-5.38;86.10;99413.64;108826;1260;93472;-58
2023/03/06 03:34:25;;;;;;;39.50;19.30;;;;;;;-5.41;86.08;99409.42;108797;1258;81139;-58
2023/03/06 03:36:59;;;;;;;39.40;20.30;;;;;;;-5.43;85.89;99409.98;108853;1260;81743;-59
2023/03/06 03:39:34;;;;;;;38.50;20.50;;;;;;;-5.43;86.26;99406.79;108838;1258;99447;-60
2023/03/06 03:42:09;;;;;;;36.90;19.80;;;;;;;-5.40;86.39;99406.42;108833;1259;88526;-60
2023/03/06 03:44:44;;;;;;;35.70;19.70;;;;;;;-5.36;86.40;99403.86;108828;1259;95781;-60
2023/03/06 03:47:16;;;;;;;;;;;;;;;-5.34;86.67;99406.19;108834;1260;80530;-62
2023/03/06 03:49:50;;;;;;;35.20;19.50;;;;;;;-5.32;86.36;99403.06;108844;1260;82820;-62
2023/03/06 03:52:25;;;;;;;37.00;20.00;;;;;;;-5.33;86.13;99398.03;108827;1262;98576;-60
2023/03/06 03:54:59;;;;;;;36.90;19.40;;;;;;;-5.33;86.38;99400.81;108860;1259;88702;-60
2023/03/06 03:57:33;;;;;;;34.10;19.40;;;;;;;-5.28;86.59;99397.98;108814;1261;94962;-58
2023/03/06 04:00:14;;;;;;;36.10;20.90;;;;;;;-5.31;86.35;99398.23;108830;1259;79617;-58
2023/03/06 04:02:49;;;;;;;39.80;19.30;;;;;;;-5.35;86.14;99398.28;108838;1260;83409;-56
2023/03/06 04:05:23;;;;;;;34.70;19.70;;;;;;;-5.42;86.17;99400.90;108853;1259;100194;-56
2023/03/06 04:07:58;;;;;;;35.50;19.70;;;;;;;-5.44;86.03;99398.26;108844;1259;87501;-56
2023/03/06 04:10:33;;;;;;;37.80;20.50;;;;;;;-5.49;86.44;99397.61;108813;1260;95203;-56
2023/03/06 04:13:07;;;;;;;33.00;18.50;;;;;;;-5.56;86.06;99391.45;108810;1259;80628;-60
2023/03/06 04:15:42;;;;;;;36.50;18.40;;;;;;;-5.59;86.28;99395.56;108820;1260;83054;-60
2023/03/06 04:18:17;;;;;;;34.70;19.80;;;;;;;-5.60;86.21;99391.36;108832;1259;99713;-59
2023/03/06 04:20:52;;;;;;;40.10;20.60;;;;;;;-5.56;86.44;99394.95;108834;1259;86737;-60
2023/03/06 04:23:26;;;;;;;35.90;20.40;;;;;;;-5.50;86.56;99390.32;108821;1260;94381;-57
2023/03/06 04:26:00;;;;;;;38.10;20.10;;;;;;;-5.46;86.74;99391.75;108795;1261;80197;-58
2023/03/06 04:28:35;;;;;;;37.80;19.70;;;;;;;-5.46;86.81;99387.58;108836;1259;82097;-56
2023/03/06 04:31:10;;;;;;;39.80;20.70;;;;;;;-5.42;86.92;99389.56;108868;1258;98626;-56
2023/03/06 04:33:44;;;;;;;35.70;19.90;;;;;;;-5.35;86.98;99386.54;108923;1257;88267;-60
2023/03/06 04:36:28;;;;;;;39.70;20.70;;;;;;;-5.32;86.72;99383.76;108869;1257;95446;-60
2023/03/06 04:39:03;;;;;;;39.20;19.50;;;;;;;-5.33;86.85;99381.33;108854;1257;81452;-58
2023/03/06 04:41:38;;;;;;;36.40;19.90;;;;;;;-5.30;86.68;99379.58;108520;1258;490342;-58
2023/03/06 04:44:13;;;;;;;36.90;19.70;;;;;;;-5.29;86.72;99379.84;108887;1257;99486;-55
2023/03/06 04:46:47;;;;;;;37.00;19.50;;;;;;;-5.29;86.77;99378.60;108917;1257;88730;-58
2023/03/06 04:49:22;;;;;;;39.10;20.30;;;;;;;-5.32;86.98;99377.43;108897;1257;95144;-59
2023/03/06 04:51:56;;;;;;;39.10;21.90;;;;;;;-5.35;86.79;99376.95;108928;1257;80024;-61
2023/03/06 04:54:30;;;;;;;38.00;21.20;;;;;;;-5.38;86.80;99380.13;108894;1257;81201;-62
2023/03/06 04:57:04;;;;;;;39.70;21.60;;;;;;;-5.43;86.67;99372.57;108936;1257;96622;-57
2023/03/06 04:59:38;;;;;;;37.50;22.00;;;;;;;-5.44;86.73;99371.60;108916;1257;88130;-57
2023/03/06 05:02:12;;;;;;;42.30;21.80;;;;;;;-5.46;86.74;99369.52;108875;1257;95576;-59
2023/03/06 05:04:44;;;;;;;;;;;;;;;-5.47;86.92;99370.63;108871;1257;81153;-59
2023/03/06 05:07:18;;;;;;;35.40;19.30;;;;;;;-5.48;86.84;99370.37;108879;1260;79028;-59
2023/03/06 05:09:52;;;;;;;41.00;19.70;;;;;;;-5.46;86.95;99373.90;108886;1257;98882;-59
2023/03/06 05:12:27;;;;;;;37.50;20.60;;;;;;;-5.42;86.83;99372.20;108897;1257;87981;-61
2023/03/06 05:15:01;;;;;;;40.70;20.50;;;;;;;-5.41;86.82;99372.80;108910;1257;95061;-61
2023/03/06 05:17:35;;;;;;;36.70;21.30;;;;;;;-5.36;86.94;99373.13;108868;1257;79111;-61
2023/03/06 05:20:10;;;;;;;;;;;;;;;-5.32;86.95;99370.04;108921;1258;83233;-61
2023/03/06 05:22:45;;;;;;;39.80;21.70;;;;;;;-5.27;86.90;99372.84;108898;1257;99221;-59
2023/03/06 05:25:19;;;;;;;35.90;20.60;;;;;;;-5.25;86.87;99372.83;108920;1257;88609;-59
2023/03/06 05:27:53;;;;;;;35.00;20.60;;;;;;;-5.23;86.94;99368.88;108898;1257;94277;-56
2023/03/06 05:30:28;;;;;;;39.30;22.00;;;;;;;-5.19;86.83;99365.17;108862;1257;78931;-56
2023/03/06 05:33:02;;;;;;;41.10;22.20;;;;;;;-5.12;86.94;99371.30;108925;1257;80459;-59
2023/03/06 05:35:37;;;;;;;45.30;21.90;;;;;;;-5.10;86.97;99362.93;108874;1257;97668;-59
2023/03/06 05:38:11;;;;;;;36.50;20.40;;;;;;;-5.13;86.79;99369.09;108911;1257;88416;-57
2023/03/06 05:40:45;;;;;;;39.40;21.80;;;;;;;-5.11;86.49;99363.02;108890;1257;95089;-58
2023/03/06 05:43:19;;;;;;;41.10;21.20;;;;;;;-5.04;86.99;99363.33;108888;1257;79102;-63
2023/03/06 05:45:59;;;;;;;;;;;;;;;-4.97;86.93;99367.14;108885;1258;83125;-62
2023/03/06 05:48:34;;;;;;;36.10;20.90;;;;;;;-4.87;86.98;99366.93;108914;1257;98345;-60
2023/03/06 05:51:11;;;;;;;39.10;20.90;;;;;;;-4.81;87.12;99367.98;108902;1257;89507;-60
2023/03/06 05:53:45;;;;;;;38.60;21.50;;;;;;;-4.70;86.76;99369.27;108880;1257;94222;-62
2023/03/06 05:56:20;;;;;;;38.60;21.30;;;;;;;-4.56;87.04;99372.23;108873;1257;81067;-61
2023/03/06 05:58:54;;;;;;;37.80;21.50;;;;;;;-4.26;87.55;99369.83;108919;1257;80084;-60
2023/03/06 06:01:29;;;;;;;33.70;18.50;;;;;;;-3.86;88.00;99373.64;108875;1257;100344;-59
2023/03/06 06:04:03;;;;;;;41.10;23.10;;;;;;;-2.96;88.56;99369.91;108910;1257;89130;-62
2023/03/06 06:06:37;;;;;;;35.50;21.60;;;;;;;-1.27;88.58;99363.20;108915;1257;93204;-63
2023/03/06 06:09:12;;;;;;;41.50;22.60;;;;;;;0.50;87.32;99359.23;108880;1257;80112;-58
2023/03/06 06:11:46;;;;;;;32.90;22.10;;;;;;;1.95;85.70;99352.69;108903;1257;82890;-60
2023/03/06 06:14:20;;;;;;;33.80;22.50;;;;;;;2.78;84.13;99360.45;108903;1257;100104;-62
2023/03/06 06:16:56;;;;;;;30.60;18.10;;;;;;;2.61;82.56;99359.02;108922;1260;88919;-57
2023/03/06 06:19:32;;;;;;;33.80;19.50;;;;;;;2.48;81.96;99356.83;108882;1257;92411;-57
2023/03/06 06:22:06;;;;;;;29.40;18.40;;;;;;;3.20;81.29;99356.36;108898;1257;78353;-56
2023/03/06 06:24:41;;;;;;;29.80;19.20;;;;;;;3.31;79.76;99355.17;108907;1257;82699;-58
2023/03/06 06:27:13;;;;;;;;;;;;;;;2.74;78.77;99359.16;108938;1257;97673;-60
2023/03/06 06:29:52;;;;;;;32.70;20.10;;;;;;;2.70;79.47;99360.52;108956;1257;88531;-62
2023/03/06 06:32:27;;;;;;;29.00;18.90;;;;;;;3.64;79.89;99351.63;108911;1257;94370;-57
2023/03/06 06:35:02;;;;;;;33.60;19.70;;;;;;;3.60;79.40;99355.15;108900;1257;78807;-58
2023/03/06 06:37:36;;;;;;;29.70;19.10;;;;;;;3.04;78.61;99362.05;108919;1257;82077;-61
2023/03/06 06:40:14;;;;;;;30.10;18.90;;;;;;;2.91;77.63;99360.09;108945;1257;98347;-60
2023/03/06 06:42:49;;;;;;;31.00;18.80;;;;;;;2.80;77.83;99362.55;108928;1257;89195;-57
2023/03/06 06:45:24;;;;;;;30.00;18.60;;;;;;;2.94;78.56;99356.02;108887;1257;93870;-57
2023/03/06 06:47:59;;;;;;;32.70;19.20;;;;;;;3.08;78.39;99354.75;108887;1257;77672;-56
2023/03/06 06:50:33;;;;;;;28.30;17.40;;;;;;;3.50;78.16;99352.14;108933;1257;81751;-57
2023/03/06 06:53:06;;;;;;;;;;;;;;;4.31;77.79;99353.14;108936;1257;99312;-57
2023/03/06 06:55:41;;;;;;;26.70;17.60;;;;;;;4.36;76.60;99349.65;108931;1257;89371;-56
2023/03/06 06:58:16;;;;;;;28.70;19.00;;;;;;;3.94;76.33;99352.17;108914;1257;92876;-56
2023/03/06 07:00:50;;;;;;;31.00;18.60;;;;;;;3.68;75.93;99346.42;108910;1257;77038;-55
2023/03/06 07:03:24;;;;;;;29.40;18.80;;;;;;;3.79;75.73;99344.16;108940;1257;80901;-62
2023/03/06 07:05:57;;;;;;;;;;;;;;;4.16;75.65;99347.20;108906;1257;100135;-62
2023/03/06 07:08:31;;;;;;;25.20;17.40;;;;;;;3.75;74.63;99341.89;108919;1257;89285;-60
2023/03/06 07:11:12;;;;;;;26.70;18.20;;;;;;;3.26;74.95;99344.48;108901;1257;95550;-60
2023/03/06 07:13:47;;;;;;;28.20;17.80;;;;;;;3.51;74.97;99341.38;108913;1257;79162;-62
2023/03/06 07:16:21;;;;;;;24.90;16.50;;;;;;;3.93;74.99;99342.20;108938;1257;81857;-60
2023/03/06 07:18:55;;;;;;;23.00;17.30;;;;;;;4.15;75.44;99340.20;108929;1257;97880;-62
2023/03/06 07:21:29;;;;;;;25.20;16.80;;;;;;;4.65;74.73;99338.14;108922;1257;86760;-61
2023/03/06 07:24:04;;;;;;;26.80;17.30;;;;;;;5.08;74.78;99334.66;108906;1257;94615;-56
2023/03/06 07:26:39;;;;;;;26.20;16.40;;;;;;;5.22;74.20;99325.65;108910;1257;80218;-56
2023/03/06 07:29:13;;;;;;;24.00;16.30;;;;;;;4.53;73.76;99336.45;108916;1257;82182;-62
2023/03/06 07:31:48;;;;;;;26.60;16.50;;;;;;;4.12;72.48;99335.50;108932;1257;98916;-57
2023/03/06 07:34:22;;;;;;;27.10;17.10;;;;;;;4.02;72.69;99341.25;108915;1257;89299;-55
2023/03/06 07:36:56;;;;;;;24.40;16.40;;;;;;;4.57;73.23;99340.42;108900;1257;95102;-61
2023/03/06 07:39:30;;;;;;;26.40;17.60;;;;;;;5.16;72.72;99343.96;108887;1257;79461;-62
2023/03/06 07:42:06;;;;;;;24.40;16.90;;;;;;;5.63;72.28;99345.89;108940;1257;81040;-60
2023/03/06 07:44:41;;;;;;;24.70;17.80;;;;;;;7.02;72.75;99344.64;108932;1257;98252;-60
2023/03/06 07:47:15;;;;;;;24.80;17.30;;;;;;;8.11;72.27;99338.38;108895;1257;88192;-62
2023/03/06 07:49:48;;;;;;;;;;;;;;;8.86;71.26;99336.23;108925;1257;96111;-62
2023/03/06 07:52:22;;;;;;;24.50;16.60;;;;;;;9.67;70.03;99333.35;108886;1257;80741;-59
2023/03/06 07:54:56;;;;;;;22.30;15.90;;;;;;;10.48;69.52;99335.77;108908;1257;81500;-59
2023/03/06 07:57:30;;;;;;;24.20;16.40;;;;;;;10.95;68.70;99337.61;108920;1257;98440;-59
2023/03/06 08:00:06;;;;;;;21.30;15.20;;;;;;;10.77;67.52;99337.75;108914;1257;87068;-57
2023/03/06 08:02:41;;;;;;;20.70;15.40;;;;;;;9.92;67.47;99334.06;108889;1257;95170;-56
2023/03/06 08:05:17;;;;;;;21.70;14.80;;;;;;;9.70;66.98;99332.19;108913;1257;79710;-56
2023/03/06 08:07:51;;;;;;;21.00;14.80;;;;;;;9.78;65.49;99337.16;108931;1257;82980;-56
2023/03/06 08:10:25;;;;;;;20.30;13.90;;;;;;;9.91;63.82;99324.94;108898;1257;100085;-56
2023/03/06 08:13:00;;;;;;;21.80;14.60;;;;;;;9.01;63.05;99332.73;108906;1257;88508;-56
2023/03/06 08:15:32;;;;;;;;;;;;;;;8.07;63.29;99336.21;108911;1257;93981;-56
2023/03/06 08:18:06;;;;;;;19.20;13.30;;;;;;;7.43;62.97;99336.83;108890;1257;80816;-61
2023/03/06 08:20:40;;;;;;;24.90;14.90;;;;;;;7.05;63.49;99337.01;108944;1257;82842;-61
2023/03/06 08:23:14;;;;;;;22.80;14.00;;;;;;;6.72;63.68;99336.77;108922;1257;98729;-60
2023/03/06 08:25:59;;;;;;;19.70;12.90;;;;;;;6.38;64.27;99336.30;108931;1257;88481;-60
2023/03/06 08:28:33;;;;;;;25.70;14.30;;;;;;;5.97;64.51;99333.67;108887;1257;94726;-60
2023/03/06 08:31:19;;;;;;;20.50;13.00;;;;;;;5.81;64.93;99335.48;108916;1257;80819;-60
2023/03/06 08:33:56;;;;;;;18.30;12.30;;;;;;;5.65;64.66;99337.93;108910;1257;81616;-60
2023/03/06 08:36:31;;;;;;;21.30;13.20;;;;;;;5.51;64.69;99340.44;108897;1257;99964;-60
2023/03/06 08:39:03;;;;;;;;;;;;;;;5.36;64.54;99336.83;108960;1257;87838;-60
2023/03/06 08:41:39;;;;;;;19.60;12.70;;;;;;;5.39;64.68;99335.73;108931;1257;95127;-60
2023/03/06 08:44:13;;;;;;;19.40;12.50;;;;;;;5.50;65.38;99336.02;108919;1257;78431;-56
2023/03/06 08:46:47;;;;;;;22.80;13.40;;;;;;;5.73;65.72;99326.73;108938;1257;82651;-58
2023/03/06 08:49:22;;;;;;;18.60;12.70;;;;;;;6.24;65.23;99330.48;108924;1257;99986;-57
2023/03/06 08:51:56;;;;;;;17.10;11.00;;;;;;;6.36;65.31;99330.17;108911;1257;88784;-60
2023/03/06 08:54:29;;;;;;;16.80;10.30;;;;;;;6.24;64.03;99324.48;108914;1257;93186;-60
2023/03/06 08:57:04;;;;;;;14.90;10.60;;;;;;;6.11;64.10;99319.87;108945;1258;78284;-57
2023/03/06 08:59:38;;;;;;;19.20;11.10;;;;;;;5.90;64.54;99317.01;108933;1257;82281;-57
2023/03/06 09:02:14;;;;;;;;;;;;;;;5.97;64.84;99316.15;108939;1258;96978;-57
2023/03/06 09:04:48;;;;;;;14.10;8.30;;;;;;;5.99;64.93;99316.84;108940;1257;89859;-57
2023/03/06 09:07:22;;;;;;;12.80;8.80;;;;;;;6.01;64.65;99315.46;108888;1257;95562;-61
2023/03/06 09:09:59;;;;;;;14.20;8.70;;;;;;;6.05;64.28;99317.40;108907;1257;78936;-62
2023/03/06 09:12:33;;;;;;;17.40;9.30;;;;;;;6.16;63.42;99311.90;108941;1257;82924;-56
2023/03/06 09:15:11;;;;;;;13.50;8.80;;;;;;;6.35;63.68;99313.94;108932;1257;98803;-56
2023/03/06 09:17:46;;;;;;;14.50;9.10;;;;;;;6.62;64.23;99315.20;108954;1257;88567;-56
2023/03/06 09:20:20;;;;;;;15.50;10.00;;;;;;;6.71;63.51;99321.40;108933;1257;93831;-56
2023/03/06 09:22:54;;;;;;;16.40;9.30;;;;;;;6.46;63.33;99319.70;108913;1257;79546;-56
2023/03/06 09:25:29;;;;;;;14.70;9.30;;;;;;;6.36;63.25;99321.02;108922;1257;82570;-56
2023/03/06 09:28:04;;;;;;;13.80;8.70;;;;;;;6.29;62.86;99316.02;108912;1257;99586;-61
2023/03/06 09:30:39;;;;;;;15.80;9.50;;;;;;;6.13;62.85;99317.27;108937;1257;87365;-62
2023/03/06 09:33:14;;;;;;;15.80;9.80;;;;;;;6.23;62.46;99316.86;108916;1257;95068;-57
2023/03/06 09:35:52;;;;;;;17.20;10.70;;;;;;;6.14;62.94;99311.17;108896;1257;79924;-57
2023/03/06 09:38:28;;;;;;;15.90;10.00;;;;;;;6.02;63.04;99309.18;108932;1257;82503;-57
2023/03/06 09:41:16;;;;;;;16.80;10.40;;;;;;;5.85;63.44;99306.55;108947;1257;100184;-57
2023/03/06 09:43:53;;;;;;;18.70;11.10;;;;;;;5.74;62.93;99306.32;108948;1257;88143;-60
2023/03/06 09:46:41;;;;;;;14.70;9.70;;;;;;;5.53;62.91;99309.64;108939;1257;94166;-61
2023/03/06 09:49:42;;;;;;;14.70;9.50;;;;;;;5.43;62.94;99307.61;108927;1257;79978;-60
2023/03/06 09:52:30;;;;;;;17.60;10.00;;;;;;;5.18;63.15;99310.09;108969;1257;82729;-56
2023/03/06 09:55:13;;;;;;;12.90;7.40;;;;;;;5.12;62.93;99305.39;108951;1257;98840;-56
2023/03/06 09:57:55;;;;;;;12.70;8.00;;;;;;;5.02;62.60;99300.70;108955;1257;89180;-61
2023/03/06 10:00:35;;;;;;;11.30;7.80;;;;;;;4.84;62.53;99298.61;108926;1257;93681;-62
2023/03/06 10:03:23;;;;;;;11.10;7.60;;;;;;;4.66;62.82;99297.67;108919;1257;79206;-62
2023/03/06 10:06:02;;;;;;;11.90;6.90;;;;;;;4.54;62.64;99297.54;108937;1257;83527;-61
2023/03/06 10:08:48;;;;;;;11.90;7.00;;;;;;;4.51;62.91;99298.05;108917;1257;99366;-61
2023/03/06 10:11:28;;;;;;;10.70;7.30;;;;;;;4.54;62.90;99295.57;108939;1257;88185;-62
2023/03/06 10:14:18;;;;;;;8.30;6.10;;;;;;;4.62;62.93;99297.20;108944;1257;94987;-59
2023/03/06 10:16:53;;;;;;;9.90;5.70;;;;;;;4.53;63.05;99289.17;108911;1257;79956;-62
2023/03/06 10:19:31;;;;;;;;;;;;;;;4.43;62.50;99287.95;108935;1257;81565;-62
2023/03/06 10:22:19;;;;;;;11.20;5.80;;;;;;;4.37;62.84;99290.20;108920;1257;96302;-61
2023/03/06 10:25:00;;;;;;;11.20;5.70;;;;;;;4.51;63.28;99289.50;108959;1257;88381;-62
2023/03/06 10:27:46;;;;;;;8.30;5.30;;;;;;;4.43;63.09;99288.65;108918;1257;94637;-55
2023/03/06 10:30:40;;;;;;;11.00;5.50;;;;;;;4.44;62.91;99283.98;108901;1257;79580;-55
2023/03/06 10:33:29;;;;;;;9.90;5.40;;;;;;;4.60;63.31;99282.91;108974;1257;80750;-60
2023/03/06 10:36:03;;;;;;;10.10;5.40;;;;;;;4.55;63.26;99283.81;108911;1257;99079;-59
2023/03/06 10:38:37;;;;;;;;;;;;;;;4.57;63.29;99278.95;108948;1257;88783;-60
2023/03/06 10:41:24;;;;;;;10.70;6.20;;;;;;;4.44;63.62;99283.46;108918;1257;95436;-60
2023/03/06 10:44:23;;;;;;;10.50;7.10;;;;;;;4.40;64.39;99281.78;108904;1258;77562;-60
2023/03/06 10:46:58;;;;;;;10.50;6.50;;;;;;;4.36;64.08;99279.98;108898;1257;81762;-61
2023/03/06 10:49:37;;;;;;;9.80;6.10;;;;;;;4.16;64.14;99275.59;108913;1258;98745;-61
2023/03/06 10:52:29;;;;;;;14.50;6.90;;;;;;;4.08;64.41;99274.90;108862;1258;88501;-57
2023/03/06 10:55:29;;;;;;;13.00;8.50;;;;;;;4.07;64.49;99269.75;108857;1258;93571;-57
2023/03/06 10:58:19;;;;;;;14.10;9.10;;;;;;;3.80;65.03;99270.42;108863;1258;79719;-59
2023/03/06 11:01:06;;;;;;;14.20;8.50;;;;;;;3.57;65.50;99272.92;108857;1258;82713;-60
2023/03/06 11:03:41;;;;;;;12.90;7.50;;;;;;;3.43;66.02;99264.09;108920;1259;97989;-62
2023/03/06 11:06:31;;;;;;;11.80;7.00;;;;;;;3.51;66.70;99261.45;108895;1258;87737;-61
2023/03/06 11:09:24;;;;;;;11.30;6.10;;;;;;;3.45;67.05;99253.73;108861;1258;95535;-55
2023/03/06 11:12:22;;;;;;;9.40;6.00;;;;;;;3.53;67.33;99250.54;108857;1258;79948;-56
2023/03/06 11:15:23;;;;;;;11.70;7.20;;;;;;;3.54;67.39;99248.55;108909;1258;82062;-55
2023/03/06 11:18:04;;;;;;;13.20;7.20;;;;;;;3.55;67.49;99240.72;108842;1258;99125;-55
2023/03/06 11:20:47;;;;;;;14.20;8.70;;;;;;;3.63;67.45;99237.73;108931;1258;88651;-55
2023/03/06 11:23:29;;;;;;;12.60;8.10;;;;;;;3.56;67.30;99234.59;108886;1258;94307;-57
2023/03/06 11:26:20;;;;;;;14.10;8.20;;;;;;;3.36;67.76;99230.48;108867;1258;79916;-57
2023/03/06 11:29:07;;;;;;;12.70;8.90;;;;;;;3.44;67.84;99220.31;108851;1258;84838;-62
2023/03/06 11:31:48;;;;;;;16.10;10.40;;;;;;;3.43;68.14;99219.14;108895;1258;99059;-62
2023/03/06 11:34:33;;;;;;;16.40;10.10;;;;;;;3.48;68.24;99214.52;108868;1258;88034;-60
2023/03/06 11:37:14;;;;;;;15.60;9.40;;;;;;;3.48;68.71;99211.65;108856;1258;92089;-56
2023/03/06 11:39:58;;;;;;;14.10;9.80;;;;;;;3.49;68.81;99210.95;108835;1258;78275;-55
2023/03/06 11:42:38;;;;;;;17.00;9.90;;;;;;;3.46;69.15;99210.60;108896;1258;81707;-56
2023/03/06 11:45:27;;;;;;;15.40;10.50;;;;;;;3.34;69.00;99205.77;108911;1258;99377;-55
2023/03/06 11:48:19;;;;;;;14.60;9.60;;;;;;;3.14;69.40;99206.72;108815;1258;88886;-61
2023/03/06 11:50:57;;;;;;;16.10;9.10;;;;;;;3.04;69.61;99205.45;108887;1258;94816;-61
2023/03/06 11:53:36;;;;;;;13.00;8.70;;;;;;;3.00;69.80;99199.33;108842;1258;80544;-61
2023/03/06 11:56:27;;;;;;;12.90;8.80;;;;;;;2.87;70.03;99197.67;108885;1258;82749;-61
2023/03/06 11:59:24;;;;;;;14.30;8.80;;;;;;;2.92;69.96;99195.95;108873;1258;97727;-59
2023/03/06 12:02:07;;;;;;;13.30;9.30;;;;;;;2.92;70.34;99196.62;108867;1258;88744;-60
2023/03/06 12:04:52;;;;;;;11.80;8.40;;;;;;;2.84;70.53;99195.16;108866;1258;95651;-59